createdAt,value
2022-10-09T00:00:50.070Z,100.00
2022-10-09T00:03:18.156Z,100.00
2022-10-09T00:05:45.559Z,100.00
2022-10-09T00:08:12.724Z,100.00
2022-10-09T00:10:43.779Z,100.00
2022-10-09T00:13:11.317Z,100.00
2022-10-09T00:15:42.332Z,100.00
2022-10-09T00:18:10.713Z,100.00
2022-10-09T00:20:43.321Z,100.00
2022-10-09T00:23:14.578Z,100.00
2022-10-09T00:25:50.917Z,100.00
2022-10-09T00:28:17.706Z,100.00
2022-10-09T00:30:44.530Z,100.00
2022-10-09T00:33:11.325Z,100.00
2022-10-09T00:35:39.577Z,100.00
2022-10-09T00:38:07.600Z,100.00
2022-10-09T00:40:36.085Z,100.00
2022-10-09T00:43:04.444Z,100.00
2022-10-09T00:45:31.636Z,100.00
2022-10-09T00:48:01.935Z,100.00
2022-10-09T00:50:42.108Z,100.00
2022-10-09T00:53:12.641Z,100.00
2022-10-09T00:55:40.228Z,100.00
2022-10-09T00:58:07.078Z,100.00
2022-10-09T01:00:33.972Z,100.00
2022-10-09T01:03:01.847Z,100.00
2022-10-09T01:06:02.770Z,100.00
2022-10-09T01:09:06.247Z,100.00
2022-10-09T01:11:50.453Z,100.00
2022-10-09T01:14:17.150Z,100.00
2022-10-09T01:16:55.429Z,100.00
2022-10-09T01:19:46.554Z,100.00
2022-10-09T01:22:19.166Z,100.00
2022-10-09T01:25:01.642Z,100.00
2022-10-09T01:27:29.472Z,100.00
2022-10-09T01:30:03.182Z,100.00
2022-10-09T01:32:33.500Z,100.00
2022-10-09T01:35:02.069Z,100.00
2022-10-09T01:37:31.735Z,100.00
2022-10-09T01:39:59.431Z,100.00
2022-10-09T01:42:28.732Z,100.00
2022-10-09T01:44:55.527Z,100.00
2022-10-09T01:47:23.017Z,100.00
2022-10-09T01:50:08.112Z,100.00
2022-10-09T01:52:41.126Z,100.00
2022-10-09T01:55:36.244Z,100.00
2022-10-09T01:58:25.150Z,100.00
2022-10-09T02:01:00.749Z,100.00
2022-10-09T02:03:30.393Z,100.00
2022-10-09T02:05:58.525Z,100.00
2022-10-09T02:08:26.106Z,100.00
2022-10-09T02:10:56.651Z,100.00
2022-10-09T02:13:23.711Z,100.00
2022-10-09T02:15:56.057Z,100.00
2022-10-09T02:18:47.072Z,100.00
2022-10-09T02:21:26.301Z,100.00
2022-10-09T02:23:54.960Z,100.00
2022-10-09T02:26:21.916Z,100.00
2022-10-09T02:28:49.060Z,100.00
2022-10-09T02:31:18.960Z,100.00
2022-10-09T02:33:45.837Z,100.00
2022-10-09T02:36:13.297Z,100.00
2022-10-09T02:38:40.046Z,100.00
2022-10-09T02:41:06.732Z,100.00
2022-10-09T02:43:33.490Z,100.00
2022-10-09T02:46:00.254Z,100.00
2022-10-09T02:48:27.073Z,100.00
2022-10-09T02:50:53.855Z,100.00
2022-10-09T02:53:20.580Z,100.00
2022-10-09T02:55:47.317Z,100.00
2022-10-09T02:58:14.067Z,100.00
2022-10-09T03:00:40.900Z,100.00
2022-10-09T03:03:07.797Z,100.00
2022-10-09T03:05:34.617Z,100.00
2022-10-09T03:08:01.387Z,100.00
2022-10-09T03:10:28.203Z,100.00
2022-10-09T03:12:54.970Z,100.00
2022-10-09T03:15:21.857Z,100.00
2022-10-09T03:17:48.594Z,100.00
2022-10-09T03:20:15.972Z,100.00
2022-10-09T03:22:43.151Z,100.00
2022-10-09T03:25:09.946Z,100.00
2022-10-09T03:27:36.722Z,100.00
2022-10-09T03:30:04.010Z,100.00
2022-10-09T03:32:30.789Z,100.00
2022-10-09T03:34:59.262Z,100.00
2022-10-09T03:37:26.041Z,100.00
2022-10-09T03:39:52.944Z,100.00
2022-10-09T03:42:19.705Z,100.00
2022-10-09T03:44:46.459Z,100.00
2022-10-09T03:47:13.294Z,100.00
2022-10-09T03:49:40.028Z,100.00
2022-10-09T03:52:06.787Z,100.00
2022-10-09T03:54:33.624Z,100.00
2022-10-09T03:57:00.787Z,100.00
2022-10-09T03:59:27.481Z,100.00
2022-10-09T04:01:54.237Z,100.00
2022-10-09T04:04:20.934Z,100.00
2022-10-09T04:06:47.696Z,100.00
2022-10-09T04:09:14.489Z,100.00
2022-10-09T04:11:41.252Z,100.00
2022-10-09T04:14:08.061Z,100.00
2022-10-09T04:16:34.993Z,100.00
2022-10-09T04:19:01.802Z,100.00
2022-10-09T04:21:28.525Z,100.00
2022-10-09T04:23:55.325Z,100.00
2022-10-09T04:26:22.011Z,100.00
2022-10-09T04:28:49.015Z,100.00
2022-10-09T04:31:15.849Z,100.00
2022-10-09T04:33:42.672Z,100.00
2022-10-09T04:36:09.515Z,100.00
2022-10-09T04:38:36.287Z,100.00
2022-10-09T04:41:05.778Z,100.00
2022-10-09T04:43:34.754Z,100.00
2022-10-09T04:46:12.684Z,100.00
2022-10-09T04:48:41.020Z,100.00
2022-10-09T04:51:08.571Z,100.00
2022-10-09T04:53:36.565Z,100.00
2022-10-09T04:56:05.577Z,100.00
2022-10-09T04:58:32.996Z,100.00
2022-10-09T05:00:59.862Z,100.00
2022-10-09T05:03:26.617Z,100.00
2022-10-09T05:05:53.450Z,100.00
2022-10-09T05:08:20.200Z,100.00
2022-10-09T05:10:47.020Z,100.00
2022-10-09T05:13:13.859Z,100.00
2022-10-09T05:15:40.642Z,100.00
2022-10-09T05:18:07.425Z,100.00
2022-10-09T05:20:34.200Z,100.00
2022-10-09T05:23:01.066Z,100.00
2022-10-09T05:25:27.792Z,100.00
2022-10-09T05:27:54.531Z,100.00
2022-10-09T05:30:21.246Z,100.00
2022-10-09T05:32:48.184Z,100.00
2022-10-09T05:35:15.815Z,100.00
2022-10-09T05:37:44.840Z,100.00
2022-10-09T05:40:11.675Z,100.00
2022-10-09T05:42:38.469Z,100.00
2022-10-09T05:45:05.595Z,100.00
2022-10-09T05:47:32.400Z,100.00
2022-10-09T05:49:59.190Z,100.00
2022-10-09T05:52:26.158Z,100.00
2022-10-09T05:54:52.988Z,100.00
2022-10-09T05:57:19.712Z,100.00
2022-10-09T05:59:46.447Z,100.00
2022-10-09T06:02:14.401Z,100.00
2022-10-09T06:04:41.164Z,100.00
2022-10-09T06:07:07.885Z,100.00
2022-10-09T06:09:34.824Z,100.00
2022-10-09T06:12:01.628Z,100.00
2022-10-09T06:14:28.512Z,100.00
2022-10-09T06:16:55.344Z,100.00
2022-10-09T06:19:22.971Z,100.00
2022-10-09T06:21:50.545Z,100.00
2022-10-09T06:24:28.652Z,100.00
2022-10-09T06:26:57.775Z,100.00
2022-10-09T06:29:24.898Z,100.00
2022-10-09T06:31:51.853Z,100.00
2022-10-09T06:34:18.718Z,100.00
2022-10-09T06:36:45.457Z,100.00
2022-10-09T06:39:12.269Z,100.00
2022-10-09T06:41:39.045Z,100.00
2022-10-09T06:44:27.733Z,100.00
2022-10-09T06:46:54.475Z,100.00
2022-10-09T06:49:21.245Z,100.00
2022-10-09T06:51:48.068Z,100.00
2022-10-09T06:54:17.311Z,100.00
2022-10-09T06:56:44.639Z,100.00
2022-10-09T06:59:12.199Z,100.00
2022-10-09T07:01:39.027Z,100.00
2022-10-09T07:04:09.787Z,100.00
2022-10-09T07:06:42.430Z,100.00
2022-10-09T07:09:12.123Z,100.00
2022-10-09T07:11:44.609Z,100.00
2022-10-09T07:14:13.154Z,100.00
2022-10-09T07:16:43.280Z,100.00
2022-10-09T07:19:11.745Z,100.00
2022-10-09T07:21:41.251Z,100.00
2022-10-09T07:24:08.860Z,100.00
2022-10-09T07:26:38.816Z,100.00
2022-10-09T07:29:07.553Z,100.00
2022-10-09T07:31:34.551Z,100.00
2022-10-09T07:34:01.785Z,100.00
2022-10-09T07:36:28.536Z,100.00
2022-10-09T07:38:58.125Z,100.00
2022-10-09T07:41:27.448Z,100.00
2022-10-09T07:43:54.545Z,100.00
2022-10-09T07:46:23.429Z,100.00
2022-10-09T07:48:51.035Z,100.00
2022-10-09T07:51:26.921Z,100.00
2022-10-09T07:53:54.076Z,100.00
2022-10-09T07:56:26.662Z,100.00
2022-10-09T07:58:56.033Z,100.00
2022-10-09T08:01:24.328Z,100.00
2022-10-09T08:03:51.511Z,100.00
2022-10-09T08:06:18.792Z,100.00
2022-10-09T08:08:49.834Z,100.00
2022-10-09T08:11:18.026Z,100.00
2022-10-09T08:13:45.987Z,100.00
2022-10-09T08:16:13.689Z,100.00
2022-10-09T08:18:40.972Z,100.00
2022-10-09T08:21:18.997Z,100.00
2022-10-09T08:23:46.087Z,100.00
2022-10-09T08:26:20.310Z,100.00
2022-10-09T08:28:58.440Z,100.00
2022-10-09T08:31:26.822Z,100.00
2022-10-09T08:33:59.146Z,100.00
2022-10-09T08:36:26.390Z,100.00
2022-10-09T08:38:53.602Z,100.00
2022-10-09T08:41:32.433Z,100.00
2022-10-09T08:44:13.895Z,100.00
2022-10-09T08:46:59.346Z,100.00
2022-10-09T08:49:41.883Z,100.00
2022-10-09T08:52:17.323Z,100.00
2022-10-09T08:54:44.465Z,100.00
2022-10-09T08:57:15.893Z,100.00
2022-10-09T08:59:43.621Z,100.00
2022-10-09T09:02:24.265Z,100.00
2022-10-09T09:04:54.578Z,100.00
2022-10-09T09:07:21.638Z,100.00
2022-10-09T09:09:56.669Z,100.00
2022-10-09T09:12:38.874Z,100.00
2022-10-09T09:15:39.629Z,100.00
2022-10-09T09:18:42.831Z,100.00
2022-10-09T09:21:39.185Z,100.00
2022-10-09T09:24:17.935Z,100.00
2022-10-09T09:26:50.203Z,100.00
2022-10-09T09:29:23.446Z,100.00
2022-10-09T09:31:54.480Z,100.00
2022-10-09T09:34:47.394Z,100.00
2022-10-09T09:37:14.570Z,100.00
2022-10-09T09:40:31.317Z,100.00
2022-10-09T09:42:28.726Z,100.00
2022-10-09T09:45:07.482Z,100.00
2022-10-09T09:47:45.539Z,100.00
2022-10-09T09:50:35.028Z,100.00
2022-10-09T09:53:06.513Z,100.00
2022-10-09T09:55:34.394Z,100.00
2022-10-09T09:58:08.985Z,100.00
2022-10-09T10:00:36.103Z,100.00
2022-10-09T10:03:23.772Z,100.00
2022-10-09T10:05:51.826Z,100.00
2022-10-09T10:08:25.727Z,100.00
2022-10-09T10:10:55.818Z,100.00
2022-10-09T10:13:38.026Z,98.49
2022-10-09T10:16:08.676Z,97.84
2022-10-09T10:18:41.952Z,100.00
2022-10-09T10:21:12.820Z,100.00
2022-10-09T10:23:44.243Z,98.15
2022-10-09T10:26:14.205Z,98.58
2022-10-09T10:29:07.079Z,94.32
2022-10-09T10:32:11.230Z,93.71
2022-10-09T10:34:47.190Z,91.86
2022-10-09T10:37:14.086Z,97.53
2022-10-09T10:39:47.004Z,90.72
2022-10-09T10:42:28.498Z,95.63
2022-10-09T10:45:10.009Z,100.00
2022-10-09T10:47:43.003Z,100.00
2022-10-09T10:50:14.541Z,93.63
2022-10-09T10:52:50.339Z,91.16
2022-10-09T10:55:26.804Z,91.40
2022-10-09T10:58:12.449Z,91.71
2022-10-09T11:00:47.068Z,90.52
2022-10-09T11:03:40.098Z,91.92
2022-10-09T11:06:22.338Z,84.98
2022-10-09T11:09:10.304Z,83.26
2022-10-09T11:11:42.517Z,78.36
2022-10-09T11:14:20.353Z,77.68
2022-10-09T11:17:12.238Z,82.26
2022-10-09T11:19:45.739Z,89.67
2022-10-09T11:22:21.355Z,91.43
2022-10-09T11:24:57.749Z,94.52
2022-10-09T11:27:39.190Z,94.55
2022-10-09T11:30:10.537Z,93.93
2022-10-09T11:33:23.281Z,91.31
2022-10-09T11:36:05.613Z,84.85
2022-10-09T11:38:39.076Z,79.83
2022-10-09T11:41:07.593Z,77.89
2022-10-09T11:44:00.992Z,72.32
2022-10-09T11:47:01.784Z,76.23
2022-10-09T11:49:46.535Z,70.08
2022-10-09T11:52:25.139Z,70.31
2022-10-09T11:54:51.851Z,70.28
2022-10-09T11:57:28.455Z,65.84
2022-10-09T12:00:09.638Z,60.69
2022-10-09T12:02:37.816Z,62.55
2022-10-09T12:05:20.145Z,69.58
2022-10-09T12:07:47.078Z,69.46
2022-10-09T12:10:31.577Z,68.04
2022-10-09T12:13:08.268Z,65.52
2022-10-09T12:15:54.964Z,64.18
2022-10-09T12:18:30.168Z,61.45
2022-10-09T12:20:59.929Z,62.44
2022-10-09T12:23:31.311Z,61.23
2022-10-09T12:26:00.491Z,60.21
2022-10-09T12:28:36.393Z,58.05
2022-10-09T12:31:07.780Z,55.93
2022-10-09T12:33:43.713Z,56.01
2022-10-09T12:36:16.333Z,62.85
2022-10-09T12:38:43.195Z,69.79
2022-10-09T12:41:30.275Z,73.34
2022-10-09T12:43:58.416Z,67.10
2022-10-09T12:46:34.565Z,66.76
2022-10-09T12:49:05.551Z,61.93
2022-10-09T12:51:33.988Z,58.55
2022-10-09T12:54:09.118Z,55.96
2022-10-09T12:56:38.483Z,53.60
2022-10-09T12:59:07.463Z,53.21
2022-10-09T13:01:35.620Z,53.19
2022-10-09T13:04:04.755Z,52.38
2022-10-09T13:06:45.202Z,56.66
2022-10-09T13:09:25.077Z,61.48
2022-10-09T13:11:59.662Z,57.21
2022-10-09T13:15:07.666Z,59.66
2022-10-09T13:17:42.011Z,62.75
2022-10-09T13:20:11.847Z,59.27
2022-10-09T13:22:39.523Z,59.40
2022-10-09T13:25:07.081Z,58.09
2022-10-09T13:27:38.019Z,57.64
2022-10-09T13:30:06.260Z,53.94
2022-10-09T13:32:33.247Z,55.24
2022-10-09T13:35:00.150Z,55.60
2022-10-09T13:37:27.231Z,57.38
2022-10-09T13:39:59.640Z,61.02
2022-10-09T13:42:30.031Z,60.36
2022-10-09T13:44:56.858Z,58.28
2022-10-09T13:47:24.807Z,57.27
2022-10-09T13:49:51.840Z,53.72
2022-10-09T13:52:18.823Z,55.47
2022-10-09T13:54:45.717Z,53.62
2022-10-09T13:57:12.638Z,53.89
2022-10-09T13:59:39.839Z,54.37
2022-10-09T14:02:06.656Z,56.29
2022-10-09T14:04:33.648Z,55.92
2022-10-09T14:07:00.543Z,55.43
2022-10-09T14:09:27.439Z,58.66
2022-10-09T14:11:54.247Z,56.21
2022-10-09T14:14:22.513Z,53.97
2022-10-09T14:16:50.742Z,56.81
2022-10-09T14:19:18.113Z,57.32
2022-10-09T14:21:46.833Z,55.22
2022-10-09T14:24:14.560Z,53.90
2022-10-09T14:26:41.341Z,56.56
2022-10-09T14:29:10.019Z,54.99
2022-10-09T14:31:36.814Z,56.79
2022-10-09T14:34:03.707Z,57.06
2022-10-09T14:36:31.638Z,58.68
2022-10-09T14:39:01.486Z,63.82
2022-10-09T14:41:28.301Z,59.06
2022-10-09T14:43:59.225Z,55.66
2022-10-09T14:46:27.857Z,56.25
2022-10-09T14:48:56.465Z,53.93
2022-10-09T14:51:25.389Z,54.88
2022-10-09T14:53:55.613Z,58.25
2022-10-09T14:56:22.524Z,57.76
2022-10-09T14:58:49.325Z,55.30
2022-10-09T15:01:18.337Z,55.88
2022-10-09T15:03:46.202Z,55.98
2022-10-09T15:06:13.352Z,59.96
2022-10-09T15:08:42.502Z,65.59
2022-10-09T15:11:11.028Z,71.42
2022-10-09T15:13:39.015Z,79.94
2022-10-09T15:16:09.423Z,82.49
2022-10-09T15:18:36.205Z,80.35
2022-10-09T15:21:04.082Z,71.33
2022-10-09T15:23:31.021Z,66.90
2022-10-09T15:26:00.691Z,63.74
2022-10-09T15:28:27.954Z,64.56
2022-10-09T15:31:00.733Z,72.11
2022-10-09T15:33:27.632Z,92.90
2022-10-09T15:35:55.450Z,100.00
2022-10-09T15:38:24.700Z,100.00
2022-10-09T15:40:56.694Z,100.00
2022-10-09T15:43:25.954Z,100.00
2022-10-09T15:46:00.466Z,100.00
2022-10-09T15:48:27.264Z,100.00
2022-10-09T15:50:54.048Z,100.00
2022-10-09T15:53:24.763Z,100.00
2022-10-09T15:55:53.249Z,100.00
2022-10-09T15:58:20.581Z,100.00
2022-10-09T16:00:49.537Z,100.00
2022-10-09T16:03:18.023Z,100.00
2022-10-09T16:05:48.755Z,100.00
2022-10-09T16:08:18.905Z,100.00
2022-10-09T16:10:49.191Z,100.00
2022-10-09T16:13:16.592Z,100.00
2022-10-09T16:15:47.317Z,100.00
2022-10-09T16:18:16.358Z,100.00
2022-10-09T16:20:43.594Z,100.00
2022-10-09T16:23:11.801Z,100.00
2022-10-09T16:25:39.924Z,100.00
2022-10-09T16:28:09.596Z,100.00
2022-10-09T16:30:41.885Z,100.00
2022-10-09T16:33:12.443Z,100.00
2022-10-09T16:35:40.090Z,100.00
2022-10-09T16:38:07.070Z,100.00
2022-10-09T16:40:57.209Z,100.00
2022-10-09T16:43:20.613Z,100.00
2022-10-09T16:45:47.384Z,100.00
2022-10-09T16:48:14.191Z,100.00
2022-10-09T16:50:42.593Z,100.00
2022-10-09T16:53:09.538Z,100.00
2022-10-09T16:55:36.425Z,100.00
2022-10-09T16:58:03.236Z,100.00
2022-10-09T17:00:30.084Z,100.00
2022-10-09T17:02:56.946Z,100.00
2022-10-09T17:05:25.608Z,100.00
2022-10-09T17:07:52.765Z,100.00
2022-10-09T17:10:19.778Z,100.00
2022-10-09T17:12:46.607Z,100.00
2022-10-09T17:15:13.625Z,100.00
2022-10-09T17:17:40.969Z,100.00
2022-10-09T17:20:18.637Z,100.00
2022-10-09T17:22:45.391Z,100.00
2022-10-09T17:25:13.654Z,100.00
2022-10-09T17:27:40.402Z,100.00
2022-10-09T17:30:07.948Z,100.00
2022-10-09T17:32:34.756Z,100.00
2022-10-09T17:35:01.758Z,100.00
2022-10-09T17:37:28.597Z,100.00
2022-10-09T17:39:55.337Z,100.00
2022-10-09T17:42:22.086Z,100.00
2022-10-09T17:44:48.859Z,100.00
2022-10-09T17:47:15.648Z,100.00
2022-10-09T17:49:42.499Z,100.00
2022-10-09T17:52:09.428Z,100.00
2022-10-09T17:54:38.856Z,100.00
2022-10-09T17:57:07.156Z,100.00
2022-10-09T17:59:34.726Z,100.00
2022-10-09T18:02:01.548Z,100.00
2022-10-09T18:04:28.563Z,100.00
2022-10-09T18:06:55.918Z,100.00
2022-10-09T18:09:22.792Z,100.00
2022-10-09T18:11:49.581Z,100.00
2022-10-09T18:14:16.550Z,100.00
2022-10-09T18:16:43.605Z,100.00
2022-10-09T18:19:13.479Z,100.00
2022-10-09T18:21:42.719Z,100.00
2022-10-09T18:24:09.976Z,100.00
2022-10-09T18:26:36.823Z,100.00
2022-10-09T18:29:04.764Z,100.00
2022-10-09T18:31:31.874Z,100.00
2022-10-09T18:33:59.789Z,100.00
2022-10-09T18:36:31.592Z,100.00
2022-10-09T18:39:05.287Z,100.00
2022-10-09T18:41:32.395Z,100.00
2022-10-09T18:44:01.513Z,100.00
2022-10-09T18:46:33.976Z,100.00
2022-10-09T18:49:01.051Z,100.00
2022-10-09T18:51:28.806Z,100.00
2022-10-09T18:54:00.206Z,100.00
2022-10-09T18:56:30.841Z,100.00
2022-10-09T18:58:59.160Z,100.00
2022-10-09T19:01:25.999Z,100.00
2022-10-09T19:03:53.005Z,100.00
2022-10-09T19:06:20.248Z,100.00
2022-10-09T19:08:47.235Z,100.00
2022-10-09T19:11:14.694Z,100.00
2022-10-09T19:13:42.594Z,100.00
2022-10-09T19:16:09.915Z,100.00
2022-10-09T19:18:37.975Z,100.00
2022-10-09T19:21:05.032Z,100.00
2022-10-09T19:23:31.825Z,100.00
2022-10-09T19:25:59.976Z,100.00
2022-10-09T19:28:31.165Z,100.00
2022-10-09T19:30:59.185Z,100.00
2022-10-09T19:33:26.011Z,100.00
2022-10-09T19:35:54.866Z,100.00
2022-10-09T19:38:22.559Z,100.00
2022-10-09T19:40:50.600Z,100.00
2022-10-09T19:43:19.025Z,100.00
2022-10-09T19:45:49.207Z,100.00
2022-10-09T19:48:17.320Z,100.00
2022-10-09T19:50:45.502Z,100.00
2022-10-09T19:53:13.136Z,100.00
2022-10-09T19:55:39.962Z,100.00
2022-10-09T19:58:06.857Z,100.00
2022-10-09T20:00:33.679Z,100.00
2022-10-09T20:03:00.516Z,100.00
2022-10-09T20:05:27.340Z,100.00
2022-10-09T20:07:54.121Z,100.00
2022-10-09T20:10:22.033Z,100.00
2022-10-09T20:12:49.099Z,100.00
2022-10-09T20:15:16.240Z,100.00
2022-10-09T20:17:43.126Z,100.00
2022-10-09T20:20:10.362Z,100.00
2022-10-09T20:22:37.081Z,100.00
2022-10-09T20:25:04.428Z,100.00
2022-10-09T20:27:31.327Z,100.00
2022-10-09T20:29:58.176Z,100.00
2022-10-09T20:32:25.496Z,100.00
2022-10-09T20:34:52.344Z,100.00
2022-10-09T20:37:19.280Z,100.00
2022-10-09T20:39:46.216Z,100.00
2022-10-09T20:42:12.978Z,100.00
2022-10-09T20:44:39.814Z,100.00
2022-10-09T20:47:06.591Z,100.00
2022-10-09T20:49:33.499Z,100.00
2022-10-09T20:52:00.254Z,100.00
2022-10-09T20:54:27.182Z,100.00
2022-10-09T20:56:54.502Z,100.00
2022-10-09T20:59:21.312Z,100.00
2022-10-09T21:01:48.122Z,100.00
2022-10-09T21:04:15.057Z,100.00
2022-10-09T21:06:42.556Z,100.00
2022-10-09T21:09:09.401Z,100.00
2022-10-09T21:11:36.344Z,100.00
2022-10-09T21:14:03.500Z,100.00
2022-10-09T21:16:30.407Z,100.00
2022-10-09T21:19:00.459Z,100.00
2022-10-09T21:21:28.695Z,100.00
2022-10-09T21:23:57.145Z,100.00
2022-10-09T21:26:25.347Z,100.00
2022-10-09T21:28:56.789Z,100.00
2022-10-09T21:31:28.452Z,100.00
2022-10-09T21:33:56.443Z,100.00
2022-10-09T21:37:08.954Z,100.00
2022-10-09T21:39:32.922Z,100.00
2022-10-09T21:41:59.746Z,100.00
2022-10-09T21:44:27.566Z,100.00
2022-10-09T21:46:54.517Z,100.00
2022-10-09T21:49:29.640Z,100.00
2022-10-09T21:51:56.467Z,100.00
2022-10-09T21:54:23.603Z,100.00
2022-10-09T21:56:50.423Z,100.00
2022-10-09T21:59:17.504Z,100.00
2022-10-09T22:01:44.396Z,100.00
2022-10-09T22:04:11.180Z,100.00
2022-10-09T22:06:38.021Z,100.00
2022-10-09T22:09:05.003Z,100.00
2022-10-09T22:11:31.772Z,100.00
2022-10-09T22:13:58.657Z,100.00
2022-10-09T22:16:25.406Z,100.00
2022-10-09T22:18:52.234Z,100.00
2022-10-09T22:21:19.592Z,100.00
2022-10-09T22:23:46.362Z,100.00
2022-10-09T22:26:18.662Z,100.00
2022-10-09T22:28:46.993Z,100.00
2022-10-09T22:31:19.696Z,100.00
2022-10-09T22:33:55.302Z,100.00
2022-10-09T22:36:24.153Z,100.00
2022-10-09T22:38:54.399Z,100.00
2022-10-09T22:41:22.568Z,100.00
2022-10-09T22:43:51.725Z,100.00
2022-10-09T22:46:22.103Z,100.00
2022-10-09T22:48:49.772Z,100.00
2022-10-09T22:51:19.298Z,100.00
2022-10-09T22:53:46.099Z,100.00
2022-10-09T22:56:16.659Z,100.00
2022-10-09T22:58:44.885Z,100.00
2022-10-09T23:01:15.661Z,100.00
2022-10-09T23:03:42.389Z,100.00
2022-10-09T23:06:17.817Z,100.00
2022-10-09T23:08:46.547Z,100.00
2022-10-09T23:11:14.617Z,100.00
2022-10-09T23:13:41.429Z,100.00
2022-10-09T23:16:10.757Z,100.00
2022-10-09T23:18:38.675Z,100.00
2022-10-09T23:21:07.782Z,100.00
2022-10-09T23:23:35.078Z,100.00
2022-10-09T23:26:11.097Z,100.00
2022-10-09T23:28:38.786Z,100.00
2022-10-09T23:31:15.183Z,100.00
2022-10-09T23:33:43.984Z,100.00
2022-10-09T23:36:13.727Z,100.00
2022-10-09T23:38:40.915Z,100.00
2022-10-09T23:41:11.029Z,100.00
2022-10-09T23:43:39.037Z,100.00
2022-10-09T23:46:08.405Z,100.00
2022-10-09T23:48:35.240Z,100.00
2022-10-09T23:51:02.328Z,100.00
2022-10-09T23:53:29.136Z,100.00
2022-10-09T23:55:55.986Z,100.00
2022-10-09T23:58:22.967Z,100.00
